Cmb Sakura — 3EGO3 — position and weather

sailwx.info

Track history (hours):
 
Tides and Currents Weather Stations Pressure Air Temp Water Temp Dewpoint Dewpoint Depression Visibility Wind Speed Wind Dir Waves Ship Positions

Cmb Sakura

Last reported at 2018-Jun-23 22:59 UTC. Time now 2018-Jun-23 23:25 UTC.
Position S 32°55' E 152°30'.

Length 225 m; draft 6.9 m.

Type: Cargo ship. MMSI: 371784000.

Date/timePositionNaut miles runAvg speedWind from/ knotsBaromVisibWave heightAir tempDewpointWater temp
2018-Jun-23 22:59S 32°55' E 152°30'1 1.2
2018-Jun-23 22:29S 32°56' E 152°30'1 1.2
2018-Jun-23 21:59S 32°56' E 152°31'1 1.2
2018-Jun-23 21:29S 32°57' E 152°31'1 1.2
2018-Jun-23 20:59S 32°57' E 152°31'1 1.2
2018-Jun-23 20:29S 32°58' E 152°32'1 1.1
2018-Jun-23 19:59S 32°58' E 152°32'1 1.1
2018-Jun-23 19:23S 32°59' E 152°32'0 1.2
2018-Jun-23 18:59S 32°59' E 152°33'1 1.4
2018-Jun-23 18:29S 32°60' E 152°33'1 1.0
2018-Jun-23 17:53S 33°00' E 152°33'0 0.9
2018-Jun-23 17:30S 33°01' E 152°34'0 0.9
2018-Jun-23 17:00S 33°01' E 152°34'1 2.1
2018-Jun-23 16:30S 32°60' E 152°34'4 8.9
2018-Jun-23 16:00S 32°56' E 152°31'5 9.2
2018-Jun-23 15:30S 32°52' E 152°33'612.5
2018-Jun-23 15:01S 32°49' E 152°39'612.2
2018-Jun-23 14:31S 32°45' E 152°45'612.1
2018-Jun-23 14:00S 32°42' E 152°51'612.0
2018-Jun-23 13:30S 32°39' E 152°57'611.3
2018-Jun-23 13:00S 32°35' E 153°03'  
Track history (hours):
 
Tides and Currents Weather Stations Pressure Air Temp Water Temp Dewpoint Dewpoint Depression Visibility Wind Speed Wind Dir Waves Ship Positions

Cmb Sakura

Last reported at 2018-Jun-23 22:59 UTC. Time now 2018-Jun-23 23:25 UTC.
Position S 32°55' E 152°30'.

Length 225 m; draft 6.9 m.

Type: Cargo ship. MMSI: 371784000.

Date/timePositionNaut miles runAvg speedWind from/ knotsBaromVisibWave heightAir tempDewpointWater temp
2018-Jun-23 22:59S 32°55' E 152°30'1 1.2
2018-Jun-23 22:29S 32°56' E 152°30'1 1.2
2018-Jun-23 21:59S 32°56' E 152°31'1 1.2
2018-Jun-23 21:29S 32°57' E 152°31'1 1.2
2018-Jun-23 20:59S 32°57' E 152°31'1 1.2
2018-Jun-23 20:29S 32°58' E 152°32'1 1.1
2018-Jun-23 19:59S 32°58' E 152°32'1 1.1
2018-Jun-23 19:23S 32°59' E 152°32'0 1.2
2018-Jun-23 18:59S 32°59' E 152°33'1 1.4
2018-Jun-23 18:29S 32°60' E 152°33'1 1.0
2018-Jun-23 17:53S 33°00' E 152°33'0 0.9
2018-Jun-23 17:30S 33°01' E 152°34'0 0.9
2018-Jun-23 17:00S 33°01' E 152°34'1 2.1
2018-Jun-23 16:30S 32°60' E 152°34'4 8.9
2018-Jun-23 16:00S 32°56' E 152°31'5 9.2
2018-Jun-23 15:30S 32°52' E 152°33'612.5
2018-Jun-23 15:01S 32°49' E 152°39'612.2
2018-Jun-23 14:31S 32°45' E 152°45'612.1
2018-Jun-23 14:00S 32°42' E 152°51'612.0
2018-Jun-23 13:30S 32°39' E 152°57'611.3
2018-Jun-23 13:00S 32°35' E 153°03'  

Dump ship's entire track history